Tremley Point, New Jersey
Current Conditions -  °F | °C
As of 9:35 AM on Friday 28 Nov 2014 (Local Time) from KLDJ Reporting Station
Scattered Clouds Scattered Clouds  
Wind Chill: 31°   Ceiling: Unl
Heat Index: 38°   Visibility: 10mi
Dew Point: 25°   Wind: 12mph
Humidity: 59%   Direction: 340°NNW
Pressure: 30.21"   Gusts: 20mph
Location:  40.6259°N, 74.2395°W
Report Text: KLDJ 281435Z AUTO 34010G17KT 10SM SCT035 04/M04 A3021 RMK AO2 T00351039
Loading
Personal Weather Stations






























Interactive Weather Map New forecast layout! Learn more

10-Day Weather Forecast

Advertisements
Track Severe Weather on mobile